sensor_id;sensor_type;location;lat;lon;timestamp;P1;durP1;ratioP1;P2;durP2;ratioP2
64225;SDS011;50545;56.064;26.178;2023-01-29T00:00:04;2.65;;;1.77;;
64225;SDS011;50545;56.064;26.178;2023-01-29T00:02:35;2.28;;;1.23;;
64225;SDS011;50545;56.064;26.178;2023-01-29T00:05:03;5.93;;;2.30;;
64225;SDS011;50545;56.064;26.178;2023-01-29T00:07:51;5.97;;;2.50;;
64225;SDS011;50545;56.064;26.178;2023-01-29T00:10:19;5.07;;;2.38;;
64225;SDS011;50545;56.064;26.178;2023-01-29T00:12:46;2.90;;;1.92;;
64225;SDS011;50545;56.064;26.178;2023-01-29T00:15:13;3.92;;;2.10;;
64225;SDS011;50545;56.064;26.178;2023-01-29T00:17:40;3.22;;;2.05;;
64225;SDS011;50545;56.064;26.178;2023-01-29T00:20:08;2.30;;;1.35;;
64225;SDS011;50545;56.064;26.178;2023-01-29T00:22:36;4.63;;;2.60;;
64225;SDS011;50545;56.064;26.178;2023-01-29T00:25:03;1.95;;;1.42;;
64225;SDS011;50545;56.064;26.178;2023-01-29T00:27:30;4.82;;;2.08;;
64225;SDS011;50545;56.064;26.178;2023-01-29T00:29:58;3.78;;;2.30;;
64225;SDS011;50545;56.064;26.178;2023-01-29T00:32:45;4.03;;;2.65;;
64225;SDS011;50545;56.064;26.178;2023-01-29T00:35:12;5.28;;;2.50;;
64225;SDS011;50545;56.064;26.178;2023-01-29T00:37:39;4.32;;;2.60;;
64225;SDS011;50545;56.064;26.178;2023-01-29T00:40:08;3.22;;;2.13;;
64225;SDS011;50545;56.064;26.178;2023-01-29T00:42:36;3.08;;;1.90;;
64225;SDS011;50545;56.064;26.178;2023-01-29T00:45:21;3.75;;;1.95;;
64225;SDS011;50545;56.064;26.178;2023-01-29T00:47:49;4.85;;;2.78;;
64225;SDS011;50545;56.064;26.178;2023-01-29T00:50:16;4.38;;;2.60;;
64225;SDS011;50545;56.064;26.178;2023-01-29T00:52:44;4.40;;;2.50;;
64225;SDS011;50545;56.064;26.178;2023-01-29T00:55:11;3.55;;;2.30;;
64225;SDS011;50545;56.064;26.178;2023-01-29T00:57:38;4.25;;;2.42;;
64225;SDS011;50545;56.064;26.178;2023-01-29T01:00:07;3.22;;;1.83;;
64225;SDS011;50545;56.064;26.178;2023-01-29T01:02:38;1.30;;;0.82;;
64225;SDS011;50545;56.064;26.178;2023-01-29T01:05:23;3.40;;;2.35;;
64225;SDS011;50545;56.064;26.178;2023-01-29T01:07:51;4.43;;;2.83;;
64225;SDS011;50545;56.064;26.178;2023-01-29T01:10:23;5.57;;;3.00;;
64225;SDS011;50545;56.064;26.178;2023-01-29T01:13:00;4.10;;;2.15;;
64225;SDS011;50545;56.064;26.178;2023-01-29T01:15:31;5.93;;;3.03;;
64225;SDS011;50545;56.064;26.178;2023-01-29T01:18:01;5.38;;;2.70;;
64225;SDS011;50545;56.064;26.178;2023-01-29T01:20:29;4.38;;;2.63;;
64225;SDS011;50545;56.064;26.178;2023-01-29T01:22:59;4.03;;;2.67;;
64225;SDS011;50545;56.064;26.178;2023-01-29T01:25:26;4.45;;;2.95;;
64225;SDS011;50545;56.064;26.178;2023-01-29T01:27:54;5.63;;;3.33;;
64225;SDS011;50545;56.064;26.178;2023-01-29T01:30:23;5.50;;;3.30;;
64225;SDS011;50545;56.064;26.178;2023-01-29T01:32:50;5.15;;;3.00;;
64225;SDS011;50545;56.064;26.178;2023-01-29T01:35:18;5.28;;;2.88;;
64225;SDS011;50545;56.064;26.178;2023-01-29T01:37:45;5.22;;;3.15;;
64225;SDS011;50545;56.064;26.178;2023-01-29T01:40:17;5.18;;;2.85;;
64225;SDS011;50545;56.064;26.178;2023-01-29T01:42:52;4.35;;;2.63;;
64225;SDS011;50545;56.064;26.178;2023-01-29T01:47:56;5.75;;;3.47;;
64225;SDS011;50545;56.064;26.178;2023-01-29T01:50:36;3.80;;;2.75;;
64225;SDS011;50545;56.064;26.178;2023-01-29T01:53:10;5.95;;;3.20;;
64225;SDS011;50545;56.064;26.178;2023-01-29T01:55:44;7.68;;;3.80;;
64225;SDS011;50545;56.064;26.178;2023-01-29T01:58:23;6.18;;;3.70;;
64225;SDS011;50545;56.064;26.178;2023-01-29T02:00:53;5.40;;;3.53;;
64225;SDS011;50545;56.064;26.178;2023-01-29T02:03:21;5.72;;;3.85;;
64225;SDS011;50545;56.064;26.178;2023-01-29T02:06:08;6.13;;;3.67;;
64225;SDS011;50545;56.064;26.178;2023-01-29T02:08:56;6.45;;;3.88;;
64225;SDS011;50545;56.064;26.178;2023-01-29T02:11:45;4.93;;;3.00;;
64225;SDS011;50545;56.064;26.178;2023-01-29T02:14:13;5.28;;;3.15;;
64225;SDS011;50545;56.064;26.178;2023-01-29T02:16:40;6.35;;;3.55;;
64225;SDS011;50545;56.064;26.178;2023-01-29T02:19:14;3.47;;;2.33;;
64225;SDS011;50545;56.064;26.178;2023-01-29T02:22:03;7.13;;;3.75;;
64225;SDS011;50545;56.064;26.178;2023-01-29T02:27:26;4.93;;;2.83;;
64225;SDS011;50545;56.064;26.178;2023-01-29T02:32:46;6.82;;;3.17;;
64225;SDS011;50545;56.064;26.178;2023-01-29T02:41:15;5.65;;;3.00;;
64225;SDS011;50545;56.064;26.178;2023-01-29T02:54:26;6.50;;;3.30;;
64225;SDS011;50545;56.064;26.178;2023-01-29T02:56:57;6.78;;;4.20;;
64225;SDS011;50545;56.064;26.178;2023-01-29T02:59:28;5.13;;;3.05;;
64225;SDS011;50545;56.064;26.178;2023-01-29T03:02:05;6.22;;;3.67;;
64225;SDS011;50545;56.064;26.178;2023-01-29T03:04:38;5.82;;;3.63;;
64225;SDS011;50545;56.064;26.178;2023-01-29T03:07:18;6.75;;;3.90;;
64225;SDS011;50545;56.064;26.178;2023-01-29T03:10:28;7.25;;;3.25;;
64225;SDS011;50545;56.064;26.178;2023-01-29T03:12:58;5.53;;;3.15;;
64225;SDS011;50545;56.064;26.178;2023-01-29T03:15:42;5.10;;;3.28;;
64225;SDS011;50545;56.064;26.178;2023-01-29T03:18:14;6.88;;;3.90;;
64225;SDS011;50545;56.064;26.178;2023-01-29T03:20:54;5.63;;;3.35;;
64225;SDS011;50545;56.064;26.178;2023-01-29T03:23:50;6.95;;;3.78;;
64225;SDS011;50545;56.064;26.178;2023-01-29T03:26:38;7.78;;;3.78;;
64225;SDS011;50545;56.064;26.178;2023-01-29T03:29:29;4.22;;;2.67;;
64225;SDS011;50545;56.064;26.178;2023-01-29T03:32:16;5.55;;;3.20;;
64225;SDS011;50545;56.064;26.178;2023-01-29T03:34:48;3.47;;;2.50;;
64225;SDS011;50545;56.064;26.178;2023-01-29T03:37:21;8.02;;;4.10;;
64225;SDS011;50545;56.064;26.178;2023-01-29T03:39:54;5.35;;;2.97;;
64225;SDS011;50545;56.064;26.178;2023-01-29T03:42:23;6.97;;;4.13;;
64225;SDS011;50545;56.064;26.178;2023-01-29T03:45:05;5.05;;;2.80;;
64225;SDS011;50545;56.064;26.178;2023-01-29T03:55:34;4.65;;;3.20;;
64225;SDS011;50545;56.064;26.178;2023-01-29T03:58:23;6.75;;;3.42;;
64225;SDS011;50545;56.064;26.178;2023-01-29T04:06:46;5.93;;;3.70;;
64225;SDS011;50545;56.064;26.178;2023-01-29T04:09:19;5.60;;;3.53;;
64225;SDS011;50545;56.064;26.178;2023-01-29T04:11:56;7.28;;;3.85;;
64225;SDS011;50545;56.064;26.178;2023-01-29T04:14:29;5.88;;;4.18;;
64225;SDS011;50545;56.064;26.178;2023-01-29T04:16:59;6.05;;;3.47;;
64225;SDS011;50545;56.064;26.178;2023-01-29T04:19:32;4.75;;;2.88;;
64225;SDS011;50545;56.064;26.178;2023-01-29T04:22:43;6.70;;;3.80;;
64225;SDS011;50545;56.064;26.178;2023-01-29T04:24:51;5.28;;;3.50;;
64225;SDS011;50545;56.064;26.178;2023-01-29T04:27:22;6.10;;;3.85;;
64225;SDS011;50545;56.064;26.178;2023-01-29T04:30:13;6.15;;;3.60;;
64225;SDS011;50545;56.064;26.178;2023-01-29T04:33:03;8.00;;;3.70;;
64225;SDS011;50545;56.064;26.178;2023-01-29T04:38:24;6.75;;;3.78;;
64225;SDS011;50545;56.064;26.178;2023-01-29T04:43:46;5.75;;;3.47;;
64225;SDS011;50545;56.064;26.178;2023-01-29T04:46:30;5.63;;;3.55;;
64225;SDS011;50545;56.064;26.178;2023-01-29T04:49:03;4.53;;;2.40;;
64225;SDS011;50545;56.064;26.178;2023-01-29T04:57:14;6.75;;;3.75;;
64225;SDS011;50545;56.064;26.178;2023-01-29T04:59:54;3.92;;;2.42;;
64225;SDS011;50545;56.064;26.178;2023-01-29T05:02:26;6.53;;;3.88;;
64225;SDS011;50545;56.064;26.178;2023-01-29T05:04:54;6.65;;;4.15;;
64225;SDS011;50545;56.064;26.178;2023-01-29T05:07:23;5.20;;;3.47;;
64225;SDS011;50545;56.064;26.178;2023-01-29T05:09:53;3.88;;;2.60;;
64225;SDS011;50545;56.064;26.178;2023-01-29T05:12:22;6.88;;;3.58;;
64225;SDS011;50545;56.064;26.178;2023-01-29T05:14:51;5.88;;;3.10;;
64225;SDS011;50545;56.064;26.178;2023-01-29T05:17:20;4.28;;;2.65;;
64225;SDS011;50545;56.064;26.178;2023-01-29T05:19:48;6.38;;;4.10;;
64225;SDS011;50545;56.064;26.178;2023-01-29T05:22:15;5.70;;;3.15;;
64225;SDS011;50545;56.064;26.178;2023-01-29T05:24:48;6.43;;;3.60;;
64225;SDS011;50545;56.064;26.178;2023-01-29T05:27:17;6.10;;;3.63;;
64225;SDS011;50545;56.064;26.178;2023-01-29T05:30:10;5.72;;;3.67;;
64225;SDS011;50545;56.064;26.178;2023-01-29T05:32:38;6.07;;;3.60;;
64225;SDS011;50545;56.064;26.178;2023-01-29T05:35:05;4.63;;;3.03;;
64225;SDS011;50545;56.064;26.178;2023-01-29T05:37:33;8.00;;;3.75;;
64225;SDS011;50545;56.064;26.178;2023-01-29T05:40:00;5.95;;;3.60;;
64225;SDS011;50545;56.064;26.178;2023-01-29T05:42:27;6.88;;;3.78;;
64225;SDS011;50545;56.064;26.178;2023-01-29T05:44:54;7.55;;;3.38;;
64225;SDS011;50545;56.064;26.178;2023-01-29T05:47:21;4.80;;;2.63;;
64225;SDS011;50545;56.064;26.178;2023-01-29T05:49:48;4.65;;;2.47;;
64225;SDS011;50545;56.064;26.178;2023-01-29T05:52:16;5.95;;;3.90;;
64225;SDS011;50545;56.064;26.178;2023-01-29T05:54:43;5.53;;;3.50;;
64225;SDS011;50545;56.064;26.178;2023-01-29T05:57:10;5.63;;;3.42;;
64225;SDS011;50545;56.064;26.178;2023-01-29T05:59:37;5.53;;;3.40;;
64225;SDS011;50545;56.064;26.178;2023-01-29T06:02:04;6.18;;;3.53;;
64225;SDS011;50545;56.064;26.178;2023-01-29T06:04:32;5.60;;;3.50;;
64225;SDS011;50545;56.064;26.178;2023-01-29T06:06:59;6.82;;;3.55;;
64225;SDS011;50545;56.064;26.178;2023-01-29T06:09:28;7.18;;;4.32;;
64225;SDS011;50545;56.064;26.178;2023-01-29T06:11:56;6.20;;;3.47;;
64225;SDS011;50545;56.064;26.178;2023-01-29T06:14:23;7.65;;;4.10;;
64225;SDS011;50545;56.064;26.178;2023-01-29T06:16:50;8.15;;;4.22;;
64225;SDS011;50545;56.064;26.178;2023-01-29T06:19:18;6.78;;;3.47;;
64225;SDS011;50545;56.064;26.178;2023-01-29T06:21:46;6.68;;;4.00;;
64225;SDS011;50545;56.064;26.178;2023-01-29T06:24:13;8.13;;;4.60;;
64225;SDS011;50545;56.064;26.178;2023-01-29T06:26:40;6.40;;;3.70;;
64225;SDS011;50545;56.064;26.178;2023-01-29T06:29:07;6.70;;;4.25;;
64225;SDS011;50545;56.064;26.178;2023-01-29T06:31:34;6.88;;;3.97;;
64225;SDS011;50545;56.064;26.178;2023-01-29T06:34:05;6.32;;;3.92;;
64225;SDS011;50545;56.064;26.178;2023-01-29T06:36:33;6.22;;;3.33;;
64225;SDS011;50545;56.064;26.178;2023-01-29T06:39:01;6.65;;;4.00;;
64225;SDS011;50545;56.064;26.178;2023-01-29T06:41:28;6.95;;;3.50;;
64225;SDS011;50545;56.064;26.178;2023-01-29T06:43:55;7.72;;;4.85;;
64225;SDS011;50545;56.064;26.178;2023-01-29T06:46:23;6.13;;;3.80;;
64225;SDS011;50545;56.064;26.178;2023-01-29T06:48:50;7.20;;;4.28;;
64225;SDS011;50545;56.064;26.178;2023-01-29T06:51:17;9.40;;;4.43;;
64225;SDS011;50545;56.064;26.178;2023-01-29T06:53:44;7.05;;;3.90;;
64225;SDS011;50545;56.064;26.178;2023-01-29T06:56:12;7.95;;;4.20;;
64225;SDS011;50545;56.064;26.178;2023-01-29T06:58:39;8.10;;;4.63;;
64225;SDS011;50545;56.064;26.178;2023-01-29T07:01:07;7.72;;;4.53;;
64225;SDS011;50545;56.064;26.178;2023-01-29T07:03:39;8.23;;;4.43;;
64225;SDS011;50545;56.064;26.178;2023-01-29T07:06:08;8.20;;;4.32;;
64225;SDS011;50545;56.064;26.178;2023-01-29T07:08:36;9.32;;;4.85;;
64225;SDS011;50545;56.064;26.178;2023-01-29T07:11:04;7.32;;;4.35;;
64225;SDS011;50545;56.064;26.178;2023-01-29T07:13:32;7.50;;;4.32;;
64225;SDS011;50545;56.064;26.178;2023-01-29T07:16:00;6.85;;;3.97;;
64225;SDS011;50545;56.064;26.178;2023-01-29T07:18:29;5.95;;;3.92;;
64225;SDS011;50545;56.064;26.178;2023-01-29T07:20:57;7.00;;;4.55;;
64225;SDS011;50545;56.064;26.178;2023-01-29T07:23:24;8.02;;;4.00;;
64225;SDS011;50545;56.064;26.178;2023-01-29T07:25:51;7.38;;;4.60;;
64225;SDS011;50545;56.064;26.178;2023-01-29T07:28:19;7.68;;;4.03;;
64225;SDS011;50545;56.064;26.178;2023-01-29T07:30:46;6.35;;;4.18;;
64225;SDS011;50545;56.064;26.178;2023-01-29T07:33:13;7.55;;;4.60;;
64225;SDS011;50545;56.064;26.178;2023-01-29T07:35:41;8.15;;;4.63;;
64225;SDS011;50545;56.064;26.178;2023-01-29T07:38:09;6.43;;;3.70;;
64225;SDS011;50545;56.064;26.178;2023-01-29T07:40:36;7.57;;;4.40;;
64225;SDS011;50545;56.064;26.178;2023-01-29T07:43:05;7.25;;;4.00;;
64225;SDS011;50545;56.064;26.178;2023-01-29T07:45:33;8.10;;;4.25;;
64225;SDS011;50545;56.064;26.178;2023-01-29T07:48:02;7.75;;;4.50;;
64225;SDS011;50545;56.064;26.178;2023-01-29T07:50:35;6.88;;;3.63;;
64225;SDS011;50545;56.064;26.178;2023-01-29T07:53:02;5.93;;;3.30;;
64225;SDS011;50545;56.064;26.178;2023-01-29T07:55:30;6.10;;;2.80;;
64225;SDS011;50545;56.064;26.178;2023-01-29T07:57:59;7.22;;;3.83;;
64225;SDS011;50545;56.064;26.178;2023-01-29T08:00:29;7.10;;;4.70;;
64225;SDS011;50545;56.064;26.178;2023-01-29T08:03:04;6.22;;;3.50;;
64225;SDS011;50545;56.064;26.178;2023-01-29T08:05:33;7.88;;;4.15;;
64225;SDS011;50545;56.064;26.178;2023-01-29T08:08:01;6.53;;;3.67;;
64225;SDS011;50545;56.064;26.178;2023-01-29T08:10:33;6.13;;;3.92;;
64225;SDS011;50545;56.064;26.178;2023-01-29T08:13:02;6.68;;;4.00;;
64225;SDS011;50545;56.064;26.178;2023-01-29T08:15:30;6.95;;;3.90;;
64225;SDS011;50545;56.064;26.178;2023-01-29T08:18:03;6.60;;;3.88;;
64225;SDS011;50545;56.064;26.178;2023-01-29T08:20:30;6.68;;;3.60;;
64225;SDS011;50545;56.064;26.178;2023-01-29T08:23:01;6.78;;;4.18;;
64225;SDS011;50545;56.064;26.178;2023-01-29T08:25:33;6.68;;;3.83;;
64225;SDS011;50545;56.064;26.178;2023-01-29T08:28:01;7.72;;;4.30;;
64225;SDS011;50545;56.064;26.178;2023-01-29T08:30:31;5.78;;;3.67;;
64225;SDS011;50545;56.064;26.178;2023-01-29T08:32:59;4.83;;;3.17;;
64225;SDS011;50545;56.064;26.178;2023-01-29T08:35:27;6.25;;;3.70;;
64225;SDS011;50545;56.064;26.178;2023-01-29T08:37:55;7.25;;;4.10;;
64225;SDS011;50545;56.064;26.178;2023-01-29T08:40:25;6.60;;;3.95;;
64225;SDS011;50545;56.064;26.178;2023-01-29T08:43:00;5.85;;;3.30;;
64225;SDS011;50545;56.064;26.178;2023-01-29T08:45:33;7.30;;;3.88;;
64225;SDS011;50545;56.064;26.178;2023-01-29T08:48:01;5.80;;;3.30;;
64225;SDS011;50545;56.064;26.178;2023-01-29T08:50:29;5.20;;;3.35;;
64225;SDS011;50545;56.064;26.178;2023-01-29T08:52:58;5.95;;;3.45;;
64225;SDS011;50545;56.064;26.178;2023-01-29T08:55:27;7.30;;;3.45;;
64225;SDS011;50545;56.064;26.178;2023-01-29T08:57:55;5.25;;;3.30;;
64225;SDS011;50545;56.064;26.178;2023-01-29T09:00:25;8.65;;;3.90;;
64225;SDS011;50545;56.064;26.178;2023-01-29T09:02:52;8.13;;;3.30;;
64225;SDS011;50545;56.064;26.178;2023-01-29T09:05:19;6.03;;;3.80;;
64225;SDS011;50545;56.064;26.178;2023-01-29T09:07:46;5.72;;;3.55;;
64225;SDS011;50545;56.064;26.178;2023-01-29T09:10:14;5.97;;;3.72;;
64225;SDS011;50545;56.064;26.178;2023-01-29T09:12:41;5.75;;;3.75;;
64225;SDS011;50545;56.064;26.178;2023-01-29T09:15:09;6.60;;;3.83;;
64225;SDS011;50545;56.064;26.178;2023-01-29T09:17:36;6.25;;;3.42;;
64225;SDS011;50545;56.064;26.178;2023-01-29T09:20:04;6.32;;;3.60;;
64225;SDS011;50545;56.064;26.178;2023-01-29T09:22:31;6.75;;;3.95;;
64225;SDS011;50545;56.064;26.178;2023-01-29T09:24:59;6.07;;;3.60;;
64225;SDS011;50545;56.064;26.178;2023-01-29T09:27:26;5.93;;;3.47;;
64225;SDS011;50545;56.064;26.178;2023-01-29T09:29:54;5.80;;;3.90;;
64225;SDS011;50545;56.064;26.178;2023-01-29T09:32:21;6.22;;;4.07;;
64225;SDS011;50545;56.064;26.178;2023-01-29T09:35:08;5.90;;;3.75;;
64225;SDS011;50545;56.064;26.178;2023-01-29T09:37:36;6.15;;;3.78;;
64225;SDS011;50545;56.064;26.178;2023-01-29T09:40:03;6.47;;;4.18;;
64225;SDS011;50545;56.064;26.178;2023-01-29T09:42:38;6.65;;;4.00;;
64225;SDS011;50545;56.064;26.178;2023-01-29T09:45:15;7.00;;;3.60;;
64225;SDS011;50545;56.064;26.178;2023-01-29T09:47:50;4.70;;;3.10;;
64225;SDS011;50545;56.064;26.178;2023-01-29T09:56:23;6.10;;;3.72;;
64225;SDS011;50545;56.064;26.178;2023-01-29T09:58:57;6.57;;;3.92;;
64225;SDS011;50545;56.064;26.178;2023-01-29T10:27:02;6.18;;;3.40;;
64225;SDS011;50545;56.064;26.178;2023-01-29T10:29:42;7.07;;;3.97;;
64225;SDS011;50545;56.064;26.178;2023-01-29T10:32:13;6.80;;;4.00;;
64225;SDS011;50545;56.064;26.178;2023-01-29T10:34:57;6.68;;;3.80;;
64225;SDS011;50545;56.064;26.178;2023-01-29T10:37:42;7.80;;;4.60;;
64225;SDS011;50545;56.064;26.178;2023-01-29T10:42:44;7.68;;;4.68;;
64225;SDS011;50545;56.064;26.178;2023-01-29T10:45:37;8.77;;;4.90;;
64225;SDS011;50545;56.064;26.178;2023-01-29T10:48:21;8.13;;;4.85;;
64225;SDS011;50545;56.064;26.178;2023-01-29T10:59:54;10.48;;;5.15;;
64225;SDS011;50545;56.064;26.178;2023-01-29T11:02:25;11.27;;;6.43;;
64225;SDS011;50545;56.064;26.178;2023-01-29T11:04:52;11.93;;;7.30;;
64225;SDS011;50545;56.064;26.178;2023-01-29T11:07:19;11.93;;;7.47;;
64225;SDS011;50545;56.064;26.178;2023-01-29T11:12:33;10.65;;;5.93;;
64225;SDS011;50545;56.064;26.178;2023-01-29T11:17:33;10.10;;;5.22;;
64225;SDS011;50545;56.064;26.178;2023-01-29T11:20:01;11.05;;;5.85;;
64225;SDS011;50545;56.064;26.178;2023-01-29T11:22:29;10.57;;;5.72;;
64225;SDS011;50545;56.064;26.178;2023-01-29T11:30:15;8.65;;;4.88;;
64225;SDS011;50545;56.064;26.178;2023-01-29T11:32:56;10.35;;;5.78;;
64225;SDS011;50545;56.064;26.178;2023-01-29T11:35:30;10.57;;;5.78;;
64225;SDS011;50545;56.064;26.178;2023-01-29T11:38:06;9.73;;;5.63;;
64225;SDS011;50545;56.064;26.178;2023-01-29T11:40:37;8.40;;;4.43;;
64225;SDS011;50545;56.064;26.178;2023-01-29T11:43:12;9.63;;;5.07;;
64225;SDS011;50545;56.064;26.178;2023-01-29T11:45:49;8.13;;;4.57;;
64225;SDS011;50545;56.064;26.178;2023-01-29T11:48:19;9.20;;;5.57;;
64225;SDS011;50545;56.064;26.178;2023-01-29T11:50:50;8.02;;;4.93;;
64225;SDS011;50545;56.064;26.178;2023-01-29T11:56:23;10.32;;;5.80;;
64225;SDS011;50545;56.064;26.178;2023-01-29T11:58:58;7.43;;;4.53;;
64225;SDS011;50545;56.064;26.178;2023-01-29T12:01:36;9.50;;;6.07;;
64225;SDS011;50545;56.064;26.178;2023-01-29T12:04:19;9.30;;;5.75;;
64225;SDS011;50545;56.064;26.178;2023-01-29T12:06:50;10.73;;;6.22;;
64225;SDS011;50545;56.064;26.178;2023-01-29T12:09:22;11.90;;;6.47;;
64225;SDS011;50545;56.064;26.178;2023-01-29T12:11:55;11.15;;;5.72;;
64225;SDS011;50545;56.064;26.178;2023-01-29T12:15:13;10.13;;;5.80;;
64225;SDS011;50545;56.064;26.178;2023-01-29T12:17:51;10.20;;;4.97;;
64225;SDS011;50545;56.064;26.178;2023-01-29T12:20:35;11.93;;;6.00;;
64225;SDS011;50545;56.064;26.178;2023-01-29T12:23:11;10.85;;;6.13;;
64225;SDS011;50545;56.064;26.178;2023-01-29T12:25:49;11.45;;;6.28;;
64225;SDS011;50545;56.064;26.178;2023-01-29T12:36:30;11.10;;;6.00;;
64225;SDS011;50545;56.064;26.178;2023-01-29T12:39:20;8.93;;;5.53;;
64225;SDS011;50545;56.064;26.178;2023-01-29T12:44:46;10.43;;;5.70;;
64225;SDS011;50545;56.064;26.178;2023-01-29T12:50:04;9.63;;;5.43;;
64225;SDS011;50545;56.064;26.178;2023-01-29T12:52:41;10.57;;;5.38;;
64225;SDS011;50545;56.064;26.178;2023-01-29T12:58:00;9.50;;;5.50;;
64225;SDS011;50545;56.064;26.178;2023-01-29T13:00:56;9.50;;;5.15;;
64225;SDS011;50545;56.064;26.178;2023-01-29T13:03:31;8.45;;;4.45;;
64225;SDS011;50545;56.064;26.178;2023-01-29T13:06:34;8.25;;;5.00;;
64225;SDS011;50545;56.064;26.178;2023-01-29T13:09:18;8.57;;;4.57;;
64225;SDS011;50545;56.064;26.178;2023-01-29T13:12:03;8.35;;;4.45;;
64225;SDS011;50545;56.064;26.178;2023-01-29T13:17:22;8.90;;;4.50;;
64225;SDS011;50545;56.064;26.178;2023-01-29T13:19:55;7.82;;;4.40;;
64225;SDS011;50545;56.064;26.178;2023-01-29T13:22:25;6.22;;;3.72;;
64225;SDS011;50545;56.064;26.178;2023-01-29T13:24:57;6.10;;;3.47;;
64225;SDS011;50545;56.064;26.178;2023-01-29T13:27:31;9.80;;;5.53;;
64225;SDS011;50545;56.064;26.178;2023-01-29T13:30:00;7.80;;;4.35;;
64225;SDS011;50545;56.064;26.178;2023-01-29T13:32:28;7.22;;;4.30;;
64225;SDS011;50545;56.064;26.178;2023-01-29T13:34:58;8.80;;;5.27;;
64225;SDS011;50545;56.064;26.178;2023-01-29T13:37:36;8.05;;;4.72;;
64225;SDS011;50545;56.064;26.178;2023-01-29T13:40:25;8.13;;;4.65;;
64225;SDS011;50545;56.064;26.178;2023-01-29T13:42:55;6.90;;;3.65;;
64225;SDS011;50545;56.064;26.178;2023-01-29T13:50:52;7.13;;;4.00;;
64225;SDS011;50545;56.064;26.178;2023-01-29T13:53:23;7.73;;;3.90;;
64225;SDS011;50545;56.064;26.178;2023-01-29T13:55:54;6.55;;;4.20;;
64225;SDS011;50545;56.064;26.178;2023-01-29T14:01:11;7.40;;;4.93;;
64225;SDS011;50545;56.064;26.178;2023-01-29T14:03:42;7.40;;;5.20;;
64225;SDS011;50545;56.064;26.178;2023-01-29T14:06:40;7.80;;;4.65;;
64225;SDS011;50545;56.064;26.178;2023-01-29T14:11:57;7.07;;;3.83;;
64225;SDS011;50545;56.064;26.178;2023-01-29T14:23:29;6.53;;;3.58;;
64225;SDS011;50545;56.064;26.178;2023-01-29T14:26:19;7.70;;;4.75;;
64225;SDS011;50545;56.064;26.178;2023-01-29T14:28:57;6.65;;;3.30;;
64225;SDS011;50545;56.064;26.178;2023-01-29T14:37:03;6.82;;;4.32;;
64225;SDS011;50545;56.064;26.178;2023-01-29T14:39:42;7.37;;;3.90;;
64225;SDS011;50545;56.064;26.178;2023-01-29T14:51:04;7.85;;;4.03;;
64225;SDS011;50545;56.064;26.178;2023-01-29T14:58:41;6.63;;;3.75;;
64225;SDS011;50545;56.064;26.178;2023-01-29T15:01:34;6.22;;;3.60;;
64225;SDS011;50545;56.064;26.178;2023-01-29T15:13:02;5.50;;;3.47;;
64225;SDS011;50545;56.064;26.178;2023-01-29T15:15:42;5.57;;;3.28;;
64225;SDS011;50545;56.064;26.178;2023-01-29T15:18:18;7.88;;;5.43;;
64225;SDS011;50545;56.064;26.178;2023-01-29T15:20:46;7.90;;;4.60;;
64225;SDS011;50545;56.064;26.178;2023-01-29T15:23:29;7.47;;;4.40;;
64225;SDS011;50545;56.064;26.178;2023-01-29T15:25:59;9.65;;;5.45;;
64225;SDS011;50545;56.064;26.178;2023-01-29T15:28:29;8.50;;;4.70;;
64225;SDS011;50545;56.064;26.178;2023-01-29T15:30:59;9.88;;;6.25;;
64225;SDS011;50545;56.064;26.178;2023-01-29T15:33:30;8.57;;;5.45;;
64225;SDS011;50545;56.064;26.178;2023-01-29T15:36:02;9.73;;;5.82;;
64225;SDS011;50545;56.064;26.178;2023-01-29T15:38:33;10.93;;;6.35;;
64225;SDS011;50545;56.064;26.178;2023-01-29T15:41:02;8.93;;;5.32;;
64225;SDS011;50545;56.064;26.178;2023-01-29T15:43:54;8.30;;;4.65;;
64225;SDS011;50545;56.064;26.178;2023-01-29T15:48:53;9.27;;;4.63;;
64225;SDS011;50545;56.064;26.178;2023-01-29T15:51:25;9.43;;;5.20;;
64225;SDS011;50545;56.064;26.178;2023-01-29T15:53:55;10.95;;;6.32;;
64225;SDS011;50545;56.064;26.178;2023-01-29T15:56:26;7.35;;;4.32;;
64225;SDS011;50545;56.064;26.178;2023-01-29T15:59:00;11.82;;;6.63;;
64225;SDS011;50545;56.064;26.178;2023-01-29T16:01:35;10.30;;;6.05;;
64225;SDS011;50545;56.064;26.178;2023-01-29T16:04:02;8.23;;;5.10;;
64225;SDS011;50545;56.064;26.178;2023-01-29T16:06:34;10.82;;;5.57;;
64225;SDS011;50545;56.064;26.178;2023-01-29T16:09:04;13.02;;;6.55;;
64225;SDS011;50545;56.064;26.178;2023-01-29T16:11:33;12.20;;;7.60;;
64225;SDS011;50545;56.064;26.178;2023-01-29T16:14:01;10.90;;;6.13;;
64225;SDS011;50545;56.064;26.178;2023-01-29T16:16:30;10.18;;;5.43;;
64225;SDS011;50545;56.064;26.178;2023-01-29T16:18:57;9.02;;;4.95;;
64225;SDS011;50545;56.064;26.178;2023-01-29T16:21:33;9.95;;;5.82;;
64225;SDS011;50545;56.064;26.178;2023-01-29T16:26:36;7.85;;;4.57;;
64225;SDS011;50545;56.064;26.178;2023-01-29T16:29:09;9.30;;;4.82;;
64225;SDS011;50545;56.064;26.178;2023-01-29T16:31:41;9.73;;;5.75;;
64225;SDS011;50545;56.064;26.178;2023-01-29T16:37:01;8.48;;;4.80;;
64225;SDS011;50545;56.064;26.178;2023-01-29T16:39:35;8.85;;;5.18;;
64225;SDS011;50545;56.064;26.178;2023-01-29T16:44:39;10.75;;;5.03;;
64225;SDS011;50545;56.064;26.178;2023-01-29T16:47:11;5.78;;;3.15;;
64225;SDS011;50545;56.064;26.178;2023-01-29T16:55:32;10.52;;;5.90;;
64225;SDS011;50545;56.064;26.178;2023-01-29T16:58:03;12.65;;;6.97;;
64225;SDS011;50545;56.064;26.178;2023-01-29T17:00:40;11.80;;;6.38;;
64225;SDS011;50545;56.064;26.178;2023-01-29T17:03:13;10.25;;;5.97;;
64225;SDS011;50545;56.064;26.178;2023-01-29T17:05:42;11.90;;;6.35;;
64225;SDS011;50545;56.064;26.178;2023-01-29T17:08:13;11.27;;;6.28;;
64225;SDS011;50545;56.064;26.178;2023-01-29T17:10:55;8.68;;;5.10;;
64225;SDS011;50545;56.064;26.178;2023-01-29T17:13:25;12.77;;;7.93;;
64225;SDS011;50545;56.064;26.178;2023-01-29T17:16:19;10.07;;;5.57;;
64225;SDS011;50545;56.064;26.178;2023-01-29T17:18:51;11.20;;;5.80;;
64225;SDS011;50545;56.064;26.178;2023-01-29T17:21:18;11.18;;;6.28;;
64225;SDS011;50545;56.064;26.178;2023-01-29T17:23:45;9.32;;;5.15;;
64225;SDS011;50545;56.064;26.178;2023-01-29T17:26:13;9.48;;;5.75;;
64225;SDS011;50545;56.064;26.178;2023-01-29T17:28:41;12.10;;;7.40;;
64225;SDS011;50545;56.064;26.178;2023-01-29T17:31:09;6.68;;;4.07;;
64225;SDS011;50545;56.064;26.178;2023-01-29T17:33:38;8.82;;;5.15;;
64225;SDS011;50545;56.064;26.178;2023-01-29T17:36:11;6.50;;;4.00;;
64225;SDS011;50545;56.064;26.178;2023-01-29T17:38:40;9.90;;;5.82;;
64225;SDS011;50545;56.064;26.178;2023-01-29T17:41:10;9.80;;;5.30;;
64225;SDS011;50545;56.064;26.178;2023-01-29T17:43:41;7.85;;;4.63;;
64225;SDS011;50545;56.064;26.178;2023-01-29T17:46:10;8.27;;;4.38;;
64225;SDS011;50545;56.064;26.178;2023-01-29T17:48:40;9.60;;;4.93;;
64225;SDS011;50545;56.064;26.178;2023-01-29T17:51:09;7.00;;;3.88;;
64225;SDS011;50545;56.064;26.178;2023-01-29T17:53:40;8.43;;;5.60;;
64225;SDS011;50545;56.064;26.178;2023-01-29T17:56:20;7.28;;;4.70;;
64225;SDS011;50545;56.064;26.178;2023-01-29T17:58:53;8.20;;;4.78;;
64225;SDS011;50545;56.064;26.178;2023-01-29T18:01:21;5.20;;;3.17;;
64225;SDS011;50545;56.064;26.178;2023-01-29T18:03:48;5.13;;;3.03;;
64225;SDS011;50545;56.064;26.178;2023-01-29T18:06:20;4.93;;;2.92;;
64225;SDS011;50545;56.064;26.178;2023-01-29T18:08:54;8.80;;;4.93;;
64225;SDS011;50545;56.064;26.178;2023-01-29T18:11:22;7.85;;;4.38;;
64225;SDS011;50545;56.064;26.178;2023-01-29T18:13:50;5.97;;;3.40;;